Denver, CO (80222)

12:42 PM MDT on August 24, 2016 (GMT -0600)
Krisana Park | | Change Station

Elev 5411 ft 39.69 °N, 104.93 °W | Updated 11 minutes ago

Light Rain
Light Rain
61.0 °F
Feels Like 61.0 °F
N
0.0
Wind Variable Wind from North
Gusts 0.0 mph

Today
High -- | Low -- °F
--% Chance of Precip.
Yesterday
High -- | Low -- °F
Precip. -- in
Pressure 30.15 in
Visibility 10.0 miles
Clouds Mostly Cloudy 6500 ft
Mostly Cloudy 9000 ft
Overcast 22000 ft
Dew Point 58 °F
Humidity 90%
Rainfall Not available.
Snow Depth Not available.
6:20 AM 7:42 PM
Waning Gibbous, 54% visible
METAR KAPA 241753Z 21005KT 10SM -RA BKN065 BKN090 OVC220 16/10 A3029 RMK AO2 RAB45 SLP209 P0000 60000 T01610100 10189 20156 51014
Pressure 30.15 in
Visibility 10.0 miles
Clouds Mostly Cloudy 6500 ft
Mostly Cloudy 9000 ft
Overcast 22000 ft
Dew Point 58 °F
Humidity 90%
Rainfall Not available.
Snow Depth Not available.
6:20 AM 7:42 PM
Waning Gibbous, 54% visible
METAR KAPA 241753Z 21005KT 10SM -RA BKN065 BKN090 OVC220 16/10 A3029 RMK AO2 RAB45 SLP209 P0000 60000 T01610100 10189 20156 51014

10-Day Weather Forecast

Almanac

Astronomy

Aug. 24, 2016 Rise Set
Actual Time
Civil Twilight
Nautical Twilight
Astronomical Twilight
Moon
Length of Visible Light
Length of Day
Tomorrow will be .
, % of the Moon is Illuminated

Today's Extremes

State Highs State Lows

Community

WunderPhotos

Upload Photos

1,934,677 photos uploaded!

WunderBlog® & News

Nearby

Air Quality

  Air Quality AQ Index Pollutant
Not available.

Snow Depth

Station Depth Elevation

Earthquake Activity

City Distance Mag. Time & Date
Minimum magnitude displayed is 2.5.

Coastal Water Temperatures

Place Temperature

Stations

Nearby Weather Stations

Station Location Temp. Windchill Dew Point Humidity Wind Precip. Elev Updated Type
                   

Watches & Warnings

There are currently no watches in effect.